createdAt,value
2023-01-22T00:00:34.249Z,0.96
2023-01-22T00:03:00.826Z,1.43
2023-01-22T00:05:27.397Z,1.29
2023-01-22T00:07:53.906Z,0.79
2023-01-22T00:10:20.593Z,0.98
2023-01-22T00:12:47.346Z,0.88
2023-01-22T00:15:13.979Z,0.93
2023-01-22T00:17:40.449Z,0.82
2023-01-22T00:20:07.396Z,0.56
2023-01-22T00:22:33.879Z,0.73
2023-01-22T00:25:00.421Z,0.62
2023-01-22T00:27:26.905Z,0.08
2023-01-22T00:29:53.465Z,0.41
2023-01-22T00:32:20.049Z,0.74
2023-01-22T00:34:46.632Z,0.88
2023-01-22T00:37:13.123Z,0.23
2023-01-22T00:39:39.652Z,0.13
2023-01-22T00:42:06.107Z,0.04
2023-01-22T00:44:32.589Z,0.07
2023-01-22T00:46:59.062Z,0.35
2023-01-22T00:49:25.549Z,0.32
2023-01-22T00:51:52.090Z,0.70
2023-01-22T00:54:18.560Z,0.63
2023-01-22T00:56:45.045Z,0.58
2023-01-22T00:59:11.535Z,0.55
2023-01-22T01:01:39.046Z,0.32
2023-01-22T01:04:05.680Z,0.47
2023-01-22T01:06:32.407Z,0.40
2023-01-22T01:08:58.907Z,0.43
2023-01-22T01:11:25.425Z,0.27
2023-01-22T01:13:53.254Z,0.16
2023-01-22T01:16:22.915Z,0.20
2023-01-22T01:18:50.115Z,0.29
2023-01-22T01:21:16.991Z,0.39
2023-01-22T01:23:43.538Z,0.24
2023-01-22T01:26:13.227Z,-0.10
2023-01-22T01:28:40.779Z,-0.28
2023-01-22T01:31:11.264Z,-0.03
2023-01-22T01:33:38.048Z,0.06
2023-01-22T01:36:10.522Z,-0.20
2023-01-22T01:38:37.552Z,0.23
2023-01-22T01:41:04.604Z,-0.04
2023-01-22T01:43:31.099Z,-0.16
2023-01-22T01:46:00.736Z,-0.04
2023-01-22T01:48:34.028Z,-0.17
2023-01-22T01:51:19.871Z,-0.57
2023-01-22T01:53:50.960Z,-0.53
2023-01-22T01:56:23.078Z,-0.35
2023-01-22T01:58:54.887Z,-0.23
2023-01-22T02:01:23.071Z,-0.34
2023-01-22T02:03:50.447Z,-0.13
2023-01-22T02:06:18.531Z,-0.25
2023-01-22T02:08:48.127Z,-0.23
2023-01-22T02:11:17.801Z,-0.30
2023-01-22T02:13:51.541Z,-0.34
2023-01-22T02:16:18.710Z,-0.31
2023-01-22T02:18:45.193Z,0.08
2023-01-22T02:21:39.954Z,-0.30
2023-01-22T02:24:10.054Z,0.01
2023-01-22T02:26:38.442Z,-0.17
2023-01-22T02:29:06.808Z,0.23
2023-01-22T02:31:34.796Z,0.36
2023-01-22T02:34:01.500Z,0.19
2023-01-22T02:36:29.556Z,0.41
2023-01-22T02:38:56.101Z,0.62
2023-01-22T02:41:22.836Z,0.69
2023-01-22T02:43:49.395Z,0.99
2023-01-22T02:46:15.863Z,1.52
2023-01-22T02:48:42.483Z,0.91
2023-01-22T02:51:09.116Z,1.17
2023-01-22T02:53:35.774Z,1.11
2023-01-22T02:56:06.816Z,0.68
2023-01-22T02:58:35.065Z,0.66
2023-01-22T03:01:13.071Z,0.56
2023-01-22T03:03:39.580Z,-0.01
2023-01-22T03:06:06.103Z,0.54
2023-01-22T03:08:32.608Z,0.22
2023-01-22T03:10:59.118Z,0.12
2023-01-22T03:13:25.602Z,0.41
2023-01-22T03:15:52.255Z,0.60
2023-01-22T03:18:19.126Z,1.10
2023-01-22T03:20:45.603Z,0.29
2023-01-22T03:23:12.098Z,0.24
2023-01-22T03:25:38.548Z,0.38
2023-01-22T03:28:05.045Z,0.32
2023-01-22T03:30:31.619Z,0.33
2023-01-22T03:32:58.127Z,0.57
2023-01-22T03:35:24.560Z,0.34
2023-01-22T03:37:51.024Z,0.37
2023-01-22T03:40:17.818Z,0.52
2023-01-22T03:42:44.378Z,0.53
2023-01-22T03:45:11.310Z,0.69
2023-01-22T03:47:37.774Z,0.60
2023-01-22T03:50:04.700Z,1.23
2023-01-22T03:52:31.568Z,1.11
2023-01-22T03:54:58.048Z,1.33
2023-01-22T03:57:24.534Z,1.57
2023-01-22T03:59:51.104Z,0.92
2023-01-22T04:02:17.627Z,1.27
2023-01-22T04:04:44.293Z,1.20
2023-01-22T04:07:10.827Z,1.57
2023-01-22T04:09:37.428Z,1.30
2023-01-22T04:12:04.018Z,1.24
2023-01-22T04:14:30.484Z,1.37
2023-01-22T04:16:57.051Z,1.61
2023-01-22T04:19:23.521Z,1.39
2023-01-22T04:21:49.996Z,1.57
2023-01-22T04:24:16.472Z,1.69
2023-01-22T04:26:42.958Z,1.57
2023-01-22T04:29:09.763Z,1.94
2023-01-22T04:31:36.308Z,1.77
2023-01-22T04:34:02.946Z,1.67
2023-01-22T04:36:29.437Z,2.08
2023-01-22T04:38:56.023Z,1.17
2023-01-22T04:41:22.597Z,1.28
2023-01-22T04:43:49.060Z,1.01
2023-01-22T04:46:15.556Z,1.02
2023-01-22T04:48:42.133Z,1.16
2023-01-22T04:51:08.639Z,1.10
2023-01-22T04:53:35.136Z,1.06
2023-01-22T04:56:01.602Z,1.52
2023-01-22T04:58:28.118Z,1.57
2023-01-22T05:00:56.079Z,1.50
2023-01-22T05:03:22.570Z,1.25
2023-01-22T05:05:49.208Z,0.99
2023-01-22T05:08:15.655Z,1.19
2023-01-22T05:10:42.125Z,1.23
2023-01-22T05:13:08.640Z,0.74
2023-01-22T05:15:35.129Z,1.00
2023-01-22T05:18:01.704Z,1.18
2023-01-22T05:20:28.195Z,1.65
2023-01-22T05:22:54.732Z,0.90
2023-01-22T05:25:21.203Z,0.36
2023-01-22T05:27:47.719Z,0.97
2023-01-22T05:30:14.441Z,1.04
2023-01-22T05:32:41.330Z,1.32
2023-01-22T05:35:08.061Z,1.07
2023-01-22T05:37:34.568Z,0.94
2023-01-22T05:40:01.046Z,0.52
2023-01-22T05:42:27.537Z,0.35
2023-01-22T05:44:53.980Z,0.57
2023-01-22T05:47:20.633Z,0.30
2023-01-22T05:49:47.095Z,0.48
2023-01-22T05:52:13.622Z,0.39
2023-01-22T05:54:40.528Z,0.73
2023-01-22T05:57:07.607Z,0.70
2023-01-22T05:59:34.429Z,1.02
2023-01-22T06:02:01.315Z,0.75
2023-01-22T06:04:28.053Z,0.86
2023-01-22T06:06:54.487Z,0.55
2023-01-22T06:09:20.980Z,0.60
2023-01-22T06:11:47.550Z,0.45
2023-01-22T06:14:14.111Z,0.55
2023-01-22T06:16:40.576Z,0.45
2023-01-22T06:19:07.437Z,0.27
2023-01-22T06:21:33.924Z,-0.12
2023-01-22T06:24:00.385Z,-0.03
2023-01-22T06:26:26.897Z,0.07
2023-01-22T06:28:53.374Z,0.25
2023-01-22T06:31:19.903Z,0.07
2023-01-22T06:33:46.433Z,0.03
2023-01-22T06:36:12.903Z,-0.13
2023-01-22T06:38:39.359Z,0.06
2023-01-22T06:41:05.835Z,0.02
2023-01-22T06:43:32.374Z,0.03
2023-01-22T06:45:58.879Z,0.25
2023-01-22T06:48:25.439Z,-0.01
2023-01-22T06:50:51.918Z,0.30
2023-01-22T06:53:18.399Z,0.07
2023-01-22T06:55:44.860Z,0.03
2023-01-22T06:58:11.341Z,0.07
2023-01-22T07:00:37.789Z,-0.20
2023-01-22T07:03:08.269Z,0.51
2023-01-22T07:05:35.090Z,0.68
2023-01-22T07:08:02.224Z,0.59
2023-01-22T07:10:28.711Z,0.38
2023-01-22T07:12:56.940Z,0.61
2023-01-22T07:15:23.407Z,0.51
2023-01-22T07:17:54.196Z,0.52
2023-01-22T07:20:23.041Z,0.72
2023-01-22T07:22:50.696Z,0.88
2023-01-22T07:25:19.322Z,0.54
2023-01-22T07:27:45.858Z,0.67
2023-01-22T07:30:12.742Z,0.72
2023-01-22T07:32:39.567Z,0.56
2023-01-22T07:35:06.237Z,0.65
2023-01-22T07:37:32.743Z,0.45
2023-01-22T07:39:59.274Z,1.08
2023-01-22T07:42:25.846Z,0.91
2023-01-22T07:44:52.322Z,0.74
2023-01-22T07:47:18.869Z,1.04
2023-01-22T07:49:45.315Z,0.87
2023-01-22T07:52:11.791Z,0.71
2023-01-22T07:54:38.282Z,0.96
2023-01-22T07:57:04.923Z,1.25
2023-01-22T07:59:31.453Z,1.29
2023-01-22T08:01:58.033Z,1.29
2023-01-22T08:04:24.936Z,0.93
2023-01-22T08:06:52.200Z,1.00
2023-01-22T08:09:18.664Z,0.83
2023-01-22T08:11:45.107Z,0.96
2023-01-22T08:14:11.588Z,1.19
2023-01-22T08:16:38.169Z,1.28
2023-01-22T08:19:04.674Z,1.01
2023-01-22T08:21:32.563Z,0.95
2023-01-22T08:23:59.014Z,1.10
2023-01-22T08:26:25.490Z,1.34
2023-01-22T08:28:51.978Z,1.64
2023-01-22T08:31:27.369Z,1.77
2023-01-22T08:33:54.628Z,1.65
2023-01-22T08:36:21.160Z,1.44
2023-01-22T08:38:47.624Z,1.41
2023-01-22T08:41:14.097Z,1.42
2023-01-22T08:43:40.645Z,1.31
2023-01-22T08:46:07.201Z,1.26
2023-01-22T08:48:33.677Z,1.39
2023-01-22T08:51:01.013Z,1.26
2023-01-22T08:53:28.004Z,1.55
2023-01-22T08:55:54.509Z,1.66
2023-01-22T08:58:20.994Z,1.76
2023-01-22T09:00:48.546Z,1.82
2023-01-22T09:03:15.080Z,1.71
2023-01-22T09:05:41.611Z,1.28
2023-01-22T09:08:08.280Z,1.44
2023-01-22T09:10:35.067Z,1.49
2023-01-22T09:13:01.730Z,1.28
2023-01-22T09:15:28.783Z,1.19
2023-01-22T09:17:55.420Z,0.93
2023-01-22T09:20:22.228Z,1.10
2023-01-22T09:22:49.644Z,0.84
2023-01-22T09:25:16.490Z,0.85
2023-01-22T09:27:43.142Z,0.83
2023-01-22T09:30:10.462Z,1.09
2023-01-22T09:32:37.251Z,1.08
2023-01-22T09:35:03.819Z,1.18
2023-01-22T09:37:30.358Z,0.94
2023-01-22T09:39:56.938Z,1.13
2023-01-22T09:42:32.821Z,0.89
2023-01-22T09:45:09.758Z,0.67
2023-01-22T09:47:47.651Z,0.61
2023-01-22T09:50:23.203Z,1.09
2023-01-22T09:52:53.467Z,0.97
2023-01-22T09:55:28.583Z,1.12
2023-01-22T09:57:59.905Z,1.05
2023-01-22T10:00:39.581Z,1.40
2023-01-22T10:03:18.465Z,1.18
2023-01-22T10:05:51.707Z,1.25
2023-01-22T10:08:26.638Z,1.38
2023-01-22T10:10:53.706Z,1.54
2023-01-22T10:13:29.054Z,1.97
2023-01-22T10:15:56.880Z,2.23
2023-01-22T10:18:48.070Z,2.43
2023-01-22T10:21:26.280Z,2.63
2023-01-22T10:23:53.675Z,2.94
2023-01-22T10:26:24.516Z,2.79
2023-01-22T10:28:59.201Z,3.05
2023-01-22T10:31:31.535Z,3.37
2023-01-22T10:34:01.118Z,2.97
2023-01-22T10:36:29.682Z,3.00
2023-01-22T10:39:14.708Z,3.38
2023-01-22T10:41:42.255Z,3.41
2023-01-22T10:44:25.012Z,3.63
2023-01-22T10:46:53.525Z,2.38
2023-01-22T10:49:22.931Z,2.35
2023-01-22T10:51:54.908Z,1.80
2023-01-22T10:54:33.197Z,2.03
2023-01-22T10:57:21.529Z,1.98
2023-01-22T10:59:55.590Z,2.14
2023-01-22T11:02:25.524Z,2.46
2023-01-22T11:04:53.216Z,2.75
2023-01-22T11:07:26.239Z,2.94
2023-01-22T11:10:15.673Z,2.74
2023-01-22T11:12:59.519Z,3.16
2023-01-22T11:15:42.755Z,3.43
2023-01-22T11:18:26.093Z,3.37
2023-01-22T11:20:56.740Z,3.65
2023-01-22T11:23:32.309Z,3.35
2023-01-22T11:26:35.160Z,2.89
2023-01-22T11:29:32.852Z,3.04
2023-01-22T11:32:20.570Z,3.14
2023-01-22T11:35:19.130Z,3.03
2023-01-22T11:38:14.814Z,3.11
2023-01-22T11:40:59.344Z,3.06
2023-01-22T11:43:46.052Z,2.09
2023-01-22T11:46:30.991Z,1.82
2023-01-22T11:49:22.177Z,2.19
2023-01-22T11:52:14.776Z,2.11
2023-01-22T11:54:47.474Z,2.04
2023-01-22T11:57:25.537Z,2.38
2023-01-22T12:00:03.220Z,1.76
2023-01-22T12:03:07.579Z,2.06
2023-01-22T12:05:56.372Z,2.51
2023-01-22T12:08:34.634Z,2.26
2023-01-22T12:11:35.507Z,2.86
2023-01-22T12:14:20.616Z,2.82
2023-01-22T12:16:53.387Z,3.10
2023-01-22T12:19:53.948Z,2.81
2023-01-22T12:22:52.009Z,2.75
2023-01-22T12:25:43.619Z,2.48
2023-01-22T12:28:56.486Z,2.13
2023-01-22T12:31:54.279Z,2.78
2023-01-22T12:34:31.961Z,3.22
2023-01-22T12:37:02.336Z,3.31
2023-01-22T12:39:35.960Z,3.15
2023-01-22T12:42:29.442Z,3.53
2023-01-22T12:45:25.245Z,2.46
2023-01-22T12:48:04.639Z,2.92
2023-01-22T12:50:31.378Z,3.45
2023-01-22T12:53:04.013Z,3.59
2023-01-22T12:55:34.181Z,3.53
2023-01-22T12:58:02.258Z,3.23
2023-01-22T13:00:37.693Z,3.32
2023-01-22T13:03:31.758Z,3.32
2023-01-22T13:06:00.810Z,3.60
2023-01-22T13:08:37.049Z,3.69
2023-01-22T13:11:08.544Z,3.74
2023-01-22T13:13:49.300Z,3.93
2023-01-22T13:16:15.814Z,3.73
2023-01-22T13:18:47.078Z,4.11
2023-01-22T13:21:16.950Z,4.23
2023-01-22T13:23:46.698Z,4.03
2023-01-22T13:26:23.453Z,3.65
2023-01-22T13:28:59.955Z,3.66
2023-01-22T13:31:26.935Z,3.70
2023-01-22T13:34:02.711Z,3.76
2023-01-22T13:36:29.229Z,3.67
2023-01-22T13:38:58.372Z,3.72
2023-01-22T13:41:43.166Z,3.84
2023-01-22T13:44:22.467Z,3.92
2023-01-22T13:46:51.372Z,4.16
2023-01-22T13:49:27.165Z,4.32
2023-01-22T13:51:58.456Z,4.10
2023-01-22T13:54:37.355Z,4.50
2023-01-22T13:57:06.185Z,4.33
2023-01-22T13:59:32.840Z,3.73
2023-01-22T14:01:59.369Z,3.30
2023-01-22T14:04:34.822Z,3.25
2023-01-22T14:07:01.886Z,3.06
2023-01-22T14:09:32.012Z,3.03
2023-01-22T14:12:00.811Z,3.54
2023-01-22T14:14:39.001Z,4.03
2023-01-22T14:17:05.772Z,4.25
2023-01-22T14:19:32.638Z,4.67
2023-01-22T14:21:59.752Z,4.49
2023-01-22T14:24:26.691Z,4.96
2023-01-22T14:26:53.522Z,5.48
2023-01-22T14:29:20.365Z,5.54
2023-01-22T14:31:46.932Z,4.87
2023-01-22T14:34:13.585Z,4.73
2023-01-22T14:36:40.273Z,4.68
2023-01-22T14:39:06.937Z,4.55
2023-01-22T14:41:33.428Z,4.77
2023-01-22T14:44:02.169Z,4.18
2023-01-22T14:46:28.670Z,4.49
2023-01-22T14:48:55.244Z,4.61
2023-01-22T14:51:21.752Z,4.16
2023-01-22T14:53:48.326Z,4.59
2023-01-22T14:56:14.764Z,4.57
2023-01-22T14:58:41.581Z,4.22
2023-01-22T15:01:20.159Z,3.94
2023-01-22T15:03:46.896Z,3.63
2023-01-22T15:06:13.654Z,3.36
2023-01-22T15:08:40.353Z,3.04
2023-01-22T15:11:07.105Z,2.96
2023-01-22T15:13:33.756Z,2.63
2023-01-22T15:16:08.730Z,2.50
2023-01-22T15:18:36.399Z,2.13
2023-01-22T15:21:03.488Z,2.16
2023-01-22T15:23:31.746Z,1.87
2023-01-22T15:26:06.441Z,2.00
2023-01-22T15:28:32.972Z,2.26
2023-01-22T15:31:04.747Z,2.35
2023-01-22T15:33:31.323Z,2.31
2023-01-22T15:35:57.853Z,1.72
2023-01-22T15:38:24.316Z,1.71
2023-01-22T15:41:01.996Z,1.47
2023-01-22T15:43:28.562Z,1.49
2023-01-22T15:45:55.060Z,1.56
2023-01-22T15:48:21.679Z,1.30
2023-01-22T15:50:48.222Z,1.58
2023-01-22T15:53:14.753Z,1.41
2023-01-22T15:55:48.648Z,1.54
2023-01-22T15:58:17.742Z,1.31
2023-01-22T16:00:44.212Z,1.22
2023-01-22T16:03:10.734Z,0.92
2023-01-22T16:05:37.241Z,0.87
2023-01-22T16:08:03.802Z,0.79
2023-01-22T16:10:30.313Z,0.68
2023-01-22T16:12:56.865Z,0.93
2023-01-22T16:15:23.386Z,0.76
2023-01-22T16:17:49.899Z,1.02
2023-01-22T16:20:16.812Z,1.08
2023-01-22T16:22:44.083Z,1.10
2023-01-22T16:25:11.015Z,1.01
2023-01-22T16:27:37.897Z,1.12
2023-01-22T16:30:05.888Z,0.94
2023-01-22T16:32:32.622Z,1.25
2023-01-22T16:34:59.087Z,1.37
2023-01-22T16:37:25.644Z,1.13
2023-01-22T16:39:52.126Z,1.12
2023-01-22T16:42:18.610Z,1.17
2023-01-22T16:44:45.157Z,1.24
2023-01-22T16:47:11.657Z,1.51
2023-01-22T16:49:38.133Z,1.53
2023-01-22T16:52:21.453Z,1.78
2023-01-22T16:54:49.307Z,1.63
2023-01-22T16:57:16.159Z,1.93
2023-01-22T16:59:42.916Z,1.76
2023-01-22T17:02:14.759Z,1.96
2023-01-22T17:04:41.418Z,1.62
2023-01-22T17:07:10.847Z,1.89
2023-01-22T17:09:40.032Z,2.00
2023-01-22T17:12:07.335Z,1.80
2023-01-22T17:14:37.017Z,1.84
2023-01-22T17:17:06.187Z,1.87
2023-01-22T17:19:33.544Z,2.02
2023-01-22T17:22:00.509Z,1.93
2023-01-22T17:24:28.906Z,1.88
2023-01-22T17:26:56.069Z,2.06
2023-01-22T17:29:22.581Z,1.95
2023-01-22T17:31:49.176Z,1.92
2023-01-22T17:34:15.867Z,1.68
2023-01-22T17:36:42.641Z,2.03
2023-01-22T17:39:15.435Z,1.74
2023-01-22T17:41:42.660Z,1.61
2023-01-22T17:44:11.651Z,1.40
2023-01-22T17:46:38.244Z,1.45
2023-01-22T17:49:05.107Z,1.43
2023-01-22T17:51:33.359Z,1.55
2023-01-22T17:54:02.089Z,1.73
2023-01-22T17:56:38.515Z,2.03
2023-01-22T17:59:06.792Z,2.14
2023-01-22T18:01:35.257Z,2.54
2023-01-22T18:04:05.490Z,2.13
2023-01-22T18:06:32.682Z,2.45
2023-01-22T18:08:59.487Z,2.37
2023-01-22T18:11:28.673Z,2.40
2023-01-22T18:14:01.795Z,2.14
2023-01-22T18:16:30.895Z,2.39
2023-01-22T18:18:58.688Z,2.54
2023-01-22T18:21:25.721Z,2.45
2023-01-22T18:23:52.942Z,2.16
2023-01-22T18:26:21.423Z,2.04
2023-01-22T18:28:51.662Z,1.70
2023-01-22T18:31:19.741Z,1.45
2023-01-22T18:33:46.526Z,1.79
2023-01-22T18:36:17.745Z,1.36
2023-01-22T18:38:44.418Z,1.45
2023-01-22T18:41:13.932Z,1.54
2023-01-22T18:43:41.069Z,1.48
2023-01-22T18:46:12.456Z,1.41
2023-01-22T18:48:41.026Z,1.49
2023-01-22T18:51:09.875Z,1.45
2023-01-22T18:53:37.775Z,1.45
2023-01-22T18:56:06.681Z,1.80
2023-01-22T18:58:34.094Z,1.65
2023-01-22T19:01:09.771Z,1.82
2023-01-22T19:03:36.472Z,1.87
2023-01-22T19:06:08.175Z,1.70
2023-01-22T19:08:34.779Z,1.45
2023-01-22T19:11:02.760Z,1.83
2023-01-22T19:13:29.333Z,1.63
2023-01-22T19:15:55.912Z,1.39
2023-01-22T19:18:22.414Z,1.43
2023-01-22T19:20:48.861Z,0.86
2023-01-22T19:23:15.354Z,0.81
2023-01-22T19:25:41.830Z,0.97
2023-01-22T19:28:08.400Z,1.03
2023-01-22T19:30:34.993Z,1.02
2023-01-22T19:33:02.565Z,1.10
2023-01-22T19:35:29.054Z,1.19
2023-01-22T19:37:55.662Z,0.90
2023-01-22T19:40:22.179Z,1.19
2023-01-22T19:42:48.657Z,1.15
2023-01-22T19:45:15.612Z,1.31
2023-01-22T19:47:42.094Z,1.53
2023-01-22T19:50:08.997Z,1.26
2023-01-22T19:52:35.490Z,1.40
2023-01-22T19:55:02.140Z,1.47
2023-01-22T19:57:28.741Z,1.64
2023-01-22T19:59:55.306Z,1.72
2023-01-22T20:02:21.808Z,1.95
2023-01-22T20:04:48.471Z,1.60
2023-01-22T20:07:14.979Z,1.72
2023-01-22T20:09:41.663Z,2.21
2023-01-22T20:12:08.155Z,1.94
2023-01-22T20:14:37.258Z,1.96
2023-01-22T20:17:03.866Z,1.92
2023-01-22T20:19:31.152Z,1.68
2023-01-22T20:21:58.401Z,1.52
2023-01-22T20:24:24.881Z,1.75
2023-01-22T20:26:54.458Z,1.49
2023-01-22T20:29:21.218Z,1.35
2023-01-22T20:31:51.453Z,1.29
2023-01-22T20:34:18.032Z,1.35
2023-01-22T20:36:44.517Z,1.43
2023-01-22T20:39:11.371Z,1.78
2023-01-22T20:41:37.948Z,1.46
2023-01-22T20:44:04.809Z,1.30
2023-01-22T20:46:31.567Z,0.94
2023-01-22T20:48:58.246Z,1.26
2023-01-22T20:51:27.894Z,1.34
2023-01-22T20:53:57.082Z,1.20
2023-01-22T20:56:28.009Z,1.06
2023-01-22T20:58:59.802Z,1.10
2023-01-22T21:01:27.525Z,0.91
2023-01-22T21:03:56.191Z,1.04
2023-01-22T21:06:22.888Z,1.37
2023-01-22T21:08:51.964Z,1.48
2023-01-22T21:11:20.249Z,1.36
2023-01-22T21:13:52.162Z,0.95
2023-01-22T21:16:24.942Z,0.88
2023-01-22T21:18:55.004Z,0.75
2023-01-22T21:21:21.504Z,0.79
2023-01-22T21:23:50.289Z,0.95
2023-01-22T21:26:19.470Z,1.27
2023-01-22T21:28:46.776Z,1.08
2023-01-22T21:31:16.251Z,1.29
2023-01-22T21:33:43.457Z,1.45
2023-01-22T21:36:11.892Z,1.18
2023-01-22T21:38:39.170Z,1.10
2023-01-22T21:41:08.581Z,1.29
2023-01-22T21:43:35.993Z,1.59
2023-01-22T21:46:02.523Z,1.02
2023-01-22T21:48:29.107Z,0.83
2023-01-22T21:50:55.618Z,0.72
2023-01-22T21:53:22.088Z,0.85
2023-01-22T21:55:52.968Z,0.83
2023-01-22T21:58:20.204Z,0.64
2023-01-22T22:00:46.790Z,0.62
2023-01-22T22:03:13.272Z,0.73
2023-01-22T22:05:39.826Z,0.69
2023-01-22T22:08:06.389Z,0.74
2023-01-22T22:10:32.875Z,0.82
2023-01-22T22:12:59.416Z,1.19
2023-01-22T22:15:25.921Z,0.62
2023-01-22T22:17:52.429Z,0.68
2023-01-22T22:20:19.186Z,0.98
2023-01-22T22:22:45.922Z,1.18
2023-01-22T22:25:12.458Z,1.53
2023-01-22T22:27:38.956Z,1.34
2023-01-22T22:30:05.899Z,1.36
2023-01-22T22:32:32.389Z,1.21
2023-01-22T22:34:58.928Z,1.18
2023-01-22T22:37:25.407Z,1.24
2023-01-22T22:39:51.893Z,1.06
2023-01-22T22:42:18.404Z,0.85
2023-01-22T22:44:44.918Z,0.63
2023-01-22T22:47:11.456Z,0.88
2023-01-22T22:49:37.938Z,1.02
2023-01-22T22:52:04.452Z,0.99
2023-01-22T22:54:30.949Z,0.95
2023-01-22T22:56:57.417Z,0.68
2023-01-22T22:59:24.051Z,0.63
2023-01-22T23:01:51.026Z,0.64
2023-01-22T23:04:17.798Z,0.25
2023-01-22T23:06:45.817Z,0.20
2023-01-22T23:09:15.759Z,0.43
2023-01-22T23:11:42.339Z,0.79
2023-01-22T23:14:10.120Z,1.01
2023-01-22T23:16:39.348Z,0.82
2023-01-22T23:19:18.744Z,1.09
2023-01-22T23:21:48.171Z,0.76
2023-01-22T23:24:14.749Z,0.40
2023-01-22T23:26:43.269Z,0.69
2023-01-22T23:29:12.710Z,0.40
2023-01-22T23:31:40.549Z,0.39
2023-01-22T23:34:12.114Z,0.25
2023-01-22T23:36:40.141Z,0.22
2023-01-22T23:39:06.673Z,0.24
2023-01-22T23:41:33.162Z,0.29
2023-01-22T23:43:59.764Z,0.04
2023-01-22T23:46:28.511Z,0.08
2023-01-22T23:48:57.327Z,0.08
2023-01-22T23:51:23.865Z,0.14
2023-01-22T23:53:52.153Z,0.30
2023-01-22T23:56:26.675Z,0.24
2023-01-22T23:58:55.068Z,0.28
